Brilliance Of The Seas — C6SJ5 — position and weather

sailwx.info

Track history (hours):
 
Tides and Currents Weather Stations Pressure Air Temp Water Temp Dewpoint Dewpoint Depression Visibility Wind Speed Wind Dir Waves Ship Positions

Brilliance Of The Seas

Operator: Royal Caribbean Cruises Ltd

Last reported at 2014-Jul-22 22:13 UTC. Time now 2014-Jul-22 23:11 UTC.
Position N 55°48' E 015°47'.

Type: Ship. MMSI: 311361000.

Date/timePositionNaut miles runAvg speedWind from/ knotsBaromVisibWave heightAir tempDewpointWater temp
2014-Jul-22 22:13N 55°48' E 015°47'1518.7
2014-Jul-22 21:26N 55°56' E 016°09'1618.7
2014-Jul-22 20:33N 56°05' E 016°34'1918.7
2014-Jul-22 19:34N 56°14' E 017°03'1818.1
2014-Jul-22 18:33N 56°32' E 017°13'1918.9
2014-Jul-22 17:33N 56°50' E 017°23'1918.9
2014-Jul-22 16:33N 57°08' E 017°32'1919.1
2014-Jul-22 15:33N 57°26' E 017°40'1817.8
2014-Jul-22 14:33N 57°37' E 018°06'5 5.2
2014-Jul-22 13:31N 57°38' E 018°16'0 0.0
2014-Jul-22 12:31N 57°38' E 018°16'0 0.0
2014-Jul-22 11:31N 57°38' E 018°16'0 0.0
2014-Jul-22 10:31N 57°38' E 018°16'0 0.0
2014-Jul-22 09:31N 57°38' E 018°16'0 0.0
2014-Jul-22 08:31N 57°38' E 018°16'0 0.0
2014-Jul-22 07:31N 57°38' E 018°16'0 0.0
2014-Jul-22 06:07N 57°38' E 018°16'0 0.0
2014-Jul-22 05:31N 57°38' E 018°16'6 5.8
2014-Jul-22 04:33N 57°42' E 018°09'1717.2
2014-Jul-22 03:33N 57°58' E 018°21'1717.4
2014-Jul-22 02:33N 58°14' E 018°36'1817.4
2014-Jul-22 01:32N 58°30' E 018°51'1717.5
2014-Jul-22 00:33N 58°45' E 019°06'74 2.7
2014-Jul-20 21:33N 59°25' E 021°07'1918.8
2014-Jul-20 20:33N 59°26' E 021°44'2618.2
2014-Jul-20 19:06N 59°31' E 022°35'1118.6
2014-Jul-20 18:30N 59°34' E 022°56'1818.7
2014-Jul-20 17:33N 59°37' E 023°30'2019.0
2014-Jul-20 16:30N 59°44' E 024°08'3015.1
2014-Jul-20 14:29N 60°04' E 024°53'5 5.8
2014-Jul-20 13:33N 60°09' E 024°55'0 0.0
2014-Jul-20 12:33N 60°09' E 024°55'0 0.0
2014-Jul-20 11:33N 60°09' E 024°55'0 0.0
2014-Jul-20 10:33N 60°09' E 024°55'0 0.0
2014-Jul-20 09:33N 60°09' E 024°55'0 0.0
2014-Jul-20 08:33N 60°09' E 024°55'0 0.0
2014-Jul-20 07:33N 60°09' E 024°55'0 0.0
2014-Jul-20 06:33N 60°09' E 024°55'0 0.0
2014-Jul-20 05:33N 60°09' E 024°55'0 0.0
2014-Jul-20 04:33N 60°09' E 024°55'2 1.7
2014-Jul-20 03:33N 60°07' E 024°54'1312.4
2014-Jul-20 02:32N 59°56' E 025°05'1212.3
2014-Jul-20 01:33N 59°53' E 025°28'2713.2
2014-Jul-19 23:33N 59°60' E 026°20'1313.2
2014-Jul-19 22:33N 60°01' E 026°46'10312.3
2014-Jul-19 14:11N 59°57' E 030°11'0 0.0
2014-Jul-18 02:13N 59°57' E 030°11'7613.3
2014-Jul-17 20:30N 60°09' E 027°41'1616.8
2014-Jul-17 19:33N 60°01' E 027°13'1616.5
2014-Jul-17 18:33N 59°59' E 026°40'94 6.2
2014-Jul-17 03:24N 59°29' E 023°43'36219.2
2014-Jul-16 08:33N 55°33' E 015°14'4219.1
2014-Jul-16 06:21N 55°06' E 014°17'2519.8
2014-Jul-16 05:06N 54°55' E 013°38'1120.2
2014-Jul-16 04:34N 54°52' E 013°20'2120.4
2014-Jul-16 03:32N 54°45' E 012°46'2019.4
2014-Jul-16 02:32N 54°34' E 012°18'1717.2
2014-Jul-16 01:33N 54°24' E 011°54'2019.8
2014-Jul-16 00:33N 54°31' E 011°22'10613.2
2014-Jul-15 16:33N 56°12' E 012°16'1717.4
2014-Jul-15 15:34N 56°01' E 012°41'1514.6
2014-Jul-15 14:34N 55°47' E 012°42'6 5.5
2014-Jul-15 13:33N 55°42' E 012°36'0 0.0
2014-Jul-15 12:33N 55°42' E 012°36'0 0.0
2014-Jul-15 11:33N 55°42' E 012°36'0 0.0
2014-Jul-15 10:33N 55°42' E 012°36'0 0.0
2014-Jul-15 09:33N 55°42' E 012°36'0 0.0
2014-Jul-15 08:33N 55°42' E 012°36'0 0.0
2014-Jul-15 07:33N 55°42' E 012°36'0 0.0
2014-Jul-15 06:33N 55°42' E 012°36'0 0.0
2014-Jul-15 05:33N 55°42' E 012°36'0 0.2
2014-Jul-15 04:34N 55°42' E 012°36'8 8.0
2014-Jul-15 03:34N 55°49' E 012°43'1515.2
2014-Jul-15 02:33N 56°04' E 012°37'1818.5
2014-Jul-15 01:33N 56°15' E 012°11'1818.0
2014-Jul-15 00:33N 56°32' E 011°58'2019.7
2014-Jul-14 23:33N 56°51' E 011°48'1919.2
2014-Jul-14 22:33N 57°09' E 011°37'1919.2
2014-Jul-14 21:33N 57°27' E 011°25'1919.1
2014-Jul-14 20:33N 57°40' E 010°59'1918.7
2014-Jul-14 19:33N 57°50' E 010°29'2019.1
2014-Jul-14 18:31N 57°51' E 009°52'18318.2
2014-Jul-14 08:30N 55°39' E 006°03'24918.9
2014-Jul-13 19:20N 52°10' E 002°12'1418.2
2014-Jul-13 18:34N 52°02' E 001°54'1514.7
2014-Jul-13 17:34N 51°51' E 001°37'1111.4
2014-Jul-13 16:33N 51°55' E 001°20'3 2.8
2014-Jul-13 15:31N 51°57' E 001°16'0 0.0
2014-Jul-13 14:31N 51°57' E 001°16'0 0.0
2014-Jul-13 13:31N 51°57' E 001°16'0 0.0
2014-Jul-13 12:31N 51°57' E 001°16'0 0.0
2014-Jul-13 11:31N 51°57' E 001°16'0 0.0
2014-Jul-13 10:31N 51°57' E 001°16'0 0.0
2014-Jul-13 09:31N 51°57' E 001°16'0 0.0
2014-Jul-13 08:31N 51°57' E 001°16'0 0.0
2014-Jul-13 07:31N 51°57' E 001°16'0 0.0
2014-Jul-13 06:31N 51°57' E 001°16'0 0.0
2014-Jul-13 05:31N 51°57' E 001°16'0 0.0
2014-Jul-13 04:31N 51°57' E 001°16'0 0.0
2014-Jul-13 03:33N 51°57' E 001°16'5 4.8
2014-Jul-13 02:33N 51°56' E 001°23'1211.5
2014-Jul-13 01:33N 51°52' E 001°41'1514.9
2014-Jul-13 00:33N 52°04' E 001°55'3416.9
2014-Jul-12 22:33N 52°20' E 002°44'  
Track history (hours):
 
Tides and Currents Weather Stations Pressure Air Temp Water Temp Dewpoint Dewpoint Depression Visibility Wind Speed Wind Dir Waves Ship Positions

Brilliance Of The Seas

Operator: Royal Caribbean Cruises Ltd

Last reported at 2014-Jul-22 22:13 UTC. Time now 2014-Jul-22 23:11 UTC.
Position N 55°48' E 015°47'.

Type: Ship. MMSI: 311361000.

Date/timePositionNaut miles runAvg speedWind from/ knotsBaromVisibWave heightAir tempDewpointWater temp
2014-Jul-22 22:13N 55°48' E 015°47'1518.7
2014-Jul-22 21:26N 55°56' E 016°09'1618.7
2014-Jul-22 20:33N 56°05' E 016°34'1918.7
2014-Jul-22 19:34N 56°14' E 017°03'1818.1
2014-Jul-22 18:33N 56°32' E 017°13'1918.9
2014-Jul-22 17:33N 56°50' E 017°23'1918.9
2014-Jul-22 16:33N 57°08' E 017°32'1919.1
2014-Jul-22 15:33N 57°26' E 017°40'1817.8
2014-Jul-22 14:33N 57°37' E 018°06'5 5.2
2014-Jul-22 13:31N 57°38' E 018°16'0 0.0
2014-Jul-22 12:31N 57°38' E 018°16'0 0.0
2014-Jul-22 11:31N 57°38' E 018°16'0 0.0
2014-Jul-22 10:31N 57°38' E 018°16'0 0.0
2014-Jul-22 09:31N 57°38' E 018°16'0 0.0
2014-Jul-22 08:31N 57°38' E 018°16'0 0.0
2014-Jul-22 07:31N 57°38' E 018°16'0 0.0
2014-Jul-22 06:07N 57°38' E 018°16'0 0.0
2014-Jul-22 05:31N 57°38' E 018°16'6 5.8
2014-Jul-22 04:33N 57°42' E 018°09'1717.2
2014-Jul-22 03:33N 57°58' E 018°21'1717.4
2014-Jul-22 02:33N 58°14' E 018°36'1817.4
2014-Jul-22 01:32N 58°30' E 018°51'1717.5
2014-Jul-22 00:33N 58°45' E 019°06'74 2.7
2014-Jul-20 21:33N 59°25' E 021°07'1918.8
2014-Jul-20 20:33N 59°26' E 021°44'2618.2
2014-Jul-20 19:06N 59°31' E 022°35'1118.6
2014-Jul-20 18:30N 59°34' E 022°56'1818.7
2014-Jul-20 17:33N 59°37' E 023°30'2019.0
2014-Jul-20 16:30N 59°44' E 024°08'3015.1
2014-Jul-20 14:29N 60°04' E 024°53'5 5.8
2014-Jul-20 13:33N 60°09' E 024°55'0 0.0
2014-Jul-20 12:33N 60°09' E 024°55'0 0.0
2014-Jul-20 11:33N 60°09' E 024°55'0 0.0
2014-Jul-20 10:33N 60°09' E 024°55'0 0.0
2014-Jul-20 09:33N 60°09' E 024°55'0 0.0
2014-Jul-20 08:33N 60°09' E 024°55'0 0.0
2014-Jul-20 07:33N 60°09' E 024°55'0 0.0
2014-Jul-20 06:33N 60°09' E 024°55'0 0.0
2014-Jul-20 05:33N 60°09' E 024°55'0 0.0
2014-Jul-20 04:33N 60°09' E 024°55'2 1.7
2014-Jul-20 03:33N 60°07' E 024°54'1312.4
2014-Jul-20 02:32N 59°56' E 025°05'1212.3
2014-Jul-20 01:33N 59°53' E 025°28'2713.2
2014-Jul-19 23:33N 59°60' E 026°20'1313.2
2014-Jul-19 22:33N 60°01' E 026°46'10312.3
2014-Jul-19 14:11N 59°57' E 030°11'0 0.0
2014-Jul-18 02:13N 59°57' E 030°11'7613.3
2014-Jul-17 20:30N 60°09' E 027°41'1616.8
2014-Jul-17 19:33N 60°01' E 027°13'1616.5
2014-Jul-17 18:33N 59°59' E 026°40'94 6.2
2014-Jul-17 03:24N 59°29' E 023°43'36219.2
2014-Jul-16 08:33N 55°33' E 015°14'4219.1
2014-Jul-16 06:21N 55°06' E 014°17'2519.8
2014-Jul-16 05:06N 54°55' E 013°38'1120.2
2014-Jul-16 04:34N 54°52' E 013°20'2120.4
2014-Jul-16 03:32N 54°45' E 012°46'2019.4
2014-Jul-16 02:32N 54°34' E 012°18'1717.2
2014-Jul-16 01:33N 54°24' E 011°54'2019.8
2014-Jul-16 00:33N 54°31' E 011°22'10613.2
2014-Jul-15 16:33N 56°12' E 012°16'1717.4
2014-Jul-15 15:34N 56°01' E 012°41'1514.6
2014-Jul-15 14:34N 55°47' E 012°42'6 5.5
2014-Jul-15 13:33N 55°42' E 012°36'0 0.0
2014-Jul-15 12:33N 55°42' E 012°36'0 0.0
2014-Jul-15 11:33N 55°42' E 012°36'0 0.0
2014-Jul-15 10:33N 55°42' E 012°36'0 0.0
2014-Jul-15 09:33N 55°42' E 012°36'0 0.0
2014-Jul-15 08:33N 55°42' E 012°36'0 0.0
2014-Jul-15 07:33N 55°42' E 012°36'0 0.0
2014-Jul-15 06:33N 55°42' E 012°36'0 0.0
2014-Jul-15 05:33N 55°42' E 012°36'0 0.2
2014-Jul-15 04:34N 55°42' E 012°36'8 8.0
2014-Jul-15 03:34N 55°49' E 012°43'1515.2
2014-Jul-15 02:33N 56°04' E 012°37'1818.5
2014-Jul-15 01:33N 56°15' E 012°11'1818.0
2014-Jul-15 00:33N 56°32' E 011°58'2019.7
2014-Jul-14 23:33N 56°51' E 011°48'1919.2
2014-Jul-14 22:33N 57°09' E 011°37'1919.2
2014-Jul-14 21:33N 57°27' E 011°25'1919.1
2014-Jul-14 20:33N 57°40' E 010°59'1918.7
2014-Jul-14 19:33N 57°50' E 010°29'2019.1
2014-Jul-14 18:31N 57°51' E 009°52'18318.2
2014-Jul-14 08:30N 55°39' E 006°03'24918.9
2014-Jul-13 19:20N 52°10' E 002°12'1418.2
2014-Jul-13 18:34N 52°02' E 001°54'1514.7
2014-Jul-13 17:34N 51°51' E 001°37'1111.4
2014-Jul-13 16:33N 51°55' E 001°20'3 2.8
2014-Jul-13 15:31N 51°57' E 001°16'0 0.0
2014-Jul-13 14:31N 51°57' E 001°16'0 0.0
2014-Jul-13 13:31N 51°57' E 001°16'0 0.0
2014-Jul-13 12:31N 51°57' E 001°16'0 0.0
2014-Jul-13 11:31N 51°57' E 001°16'0 0.0
2014-Jul-13 10:31N 51°57' E 001°16'0 0.0
2014-Jul-13 09:31N 51°57' E 001°16'0 0.0
2014-Jul-13 08:31N 51°57' E 001°16'0 0.0
2014-Jul-13 07:31N 51°57' E 001°16'0 0.0
2014-Jul-13 06:31N 51°57' E 001°16'0 0.0
2014-Jul-13 05:31N 51°57' E 001°16'0 0.0
2014-Jul-13 04:31N 51°57' E 001°16'0 0.0
2014-Jul-13 03:33N 51°57' E 001°16'5 4.8
2014-Jul-13 02:33N 51°56' E 001°23'1211.5
2014-Jul-13 01:33N 51°52' E 001°41'1514.9
2014-Jul-13 00:33N 52°04' E 001°55'3416.9
2014-Jul-12 22:33N 52°20' E 002°44'  

Dump ship's entire track history